createdAt,value
2019-01-24T00:02:29.625Z,21.37
2019-01-24T00:04:59.541Z,22.20
2019-01-24T00:07:29.489Z,22.27
2019-01-24T00:09:59.422Z,20.83
2019-01-24T00:12:29.386Z,20.97
2019-01-24T00:14:59.347Z,23.67
2019-01-24T00:17:29.489Z,22.53
2019-01-24T00:19:59.392Z,22.30
2019-01-24T00:22:29.330Z,21.50
2019-01-24T00:24:59.187Z,21.53
2019-01-24T00:27:29.140Z,23.07
2019-01-24T00:29:59.054Z,21.27
2019-01-24T00:32:28.962Z,20.43
2019-01-24T00:34:58.875Z,21.60
2019-01-24T00:37:28.810Z,21.30
2019-01-24T00:39:58.979Z,24.67
2019-01-24T00:42:28.931Z,20.60
2019-01-24T00:44:58.779Z,19.17
2019-01-24T00:47:28.775Z,19.53
2019-01-24T00:49:58.714Z,21.17
2019-01-24T00:52:29.072Z,19.27
2019-01-24T00:54:59.055Z,19.07
2019-01-24T00:57:28.968Z,20.87
2019-01-24T00:59:58.894Z,18.37
2019-01-24T01:02:28.852Z,19.80
2019-01-24T01:04:58.811Z,17.33
2019-01-24T01:07:28.759Z,18.87
2019-01-24T01:09:58.705Z,19.13
2019-01-24T01:12:28.554Z,19.30
2019-01-24T01:14:58.490Z,18.63
2019-01-24T01:17:28.370Z,17.83
2019-01-24T01:19:58.684Z,17.87
2019-01-24T01:22:28.640Z,17.00
2019-01-24T01:24:59.751Z,16.03
2019-01-24T01:27:29.682Z,17.97
2019-01-24T01:29:59.608Z,16.83
2019-01-24T01:32:29.855Z,16.67
2019-01-24T01:35:00.026Z,17.13
2019-01-24T01:37:29.953Z,17.77
2019-01-24T01:39:59.919Z,17.60
2019-01-24T01:42:29.852Z,17.60
2019-01-24T01:44:59.803Z,16.73
2019-01-24T01:47:29.770Z,17.97
2019-01-24T01:49:59.730Z,17.87
2019-01-24T01:52:29.647Z,18.13
2019-01-24T01:54:59.584Z,17.73
2019-01-24T01:57:29.461Z,17.63
2019-01-24T01:59:59.417Z,17.47
2019-01-24T02:02:29.505Z,18.80
2019-01-24T02:04:59.451Z,18.10
2019-01-24T02:07:29.405Z,17.67
2019-01-24T02:09:59.332Z,17.13
2019-01-24T02:12:29.326Z,16.47
2019-01-24T02:14:59.456Z,16.53
2019-01-24T02:17:29.380Z,18.60
2019-01-24T02:19:59.322Z,17.27
2019-01-24T02:22:29.301Z,18.60
2019-01-24T02:24:59.228Z,17.73
2019-01-24T02:27:29.199Z,17.07
2019-01-24T02:29:59.086Z,17.17
2019-01-24T02:32:29.262Z,16.83
2019-01-24T02:34:59.194Z,18.27
2019-01-24T02:37:29.501Z,16.87
2019-01-24T02:39:59.355Z,17.80
2019-01-24T02:42:29.319Z,17.20
2019-01-24T02:44:59.259Z,18.30
2019-01-24T02:47:29.254Z,21.13
2019-01-24T02:49:59.195Z,18.53
2019-01-24T02:52:29.169Z,17.83
2019-01-24T02:54:59.125Z,17.57
2019-01-24T02:57:29.090Z,17.27
2019-01-24T02:59:59.022Z,17.67
2019-01-24T03:02:29.047Z,17.87
2019-01-24T03:04:58.995Z,17.50
2019-01-24T03:07:28.956Z,20.00
2019-01-24T03:09:58.890Z,19.07
2019-01-24T03:12:28.857Z,18.77
2019-01-24T03:14:58.697Z,18.50
2019-01-24T03:17:28.593Z,17.80
2019-01-24T03:19:58.453Z,18.30
2019-01-24T03:22:28.364Z,16.77
2019-01-24T03:24:59.383Z,18.17
2019-01-24T03:27:29.380Z,18.67
2019-01-24T03:29:59.316Z,17.23
2019-01-24T03:32:29.929Z,18.77
2019-01-24T03:35:04.018Z,16.90
2019-01-24T03:37:31.874Z,18.13
2019-01-24T03:40:01.851Z,17.87
2019-01-24T03:42:32.233Z,16.10
2019-01-24T03:45:02.152Z,16.80
2019-01-24T03:47:32.122Z,16.63
2019-01-24T03:50:02.035Z,19.03
2019-01-24T03:52:31.949Z,15.70
2019-01-24T03:55:01.853Z,18.30
2019-01-24T03:57:31.779Z,17.00
2019-01-24T04:00:01.749Z,17.50
2019-01-24T04:02:31.640Z,17.43
2019-01-24T04:05:01.552Z,17.53
2019-01-24T04:07:31.479Z,17.13
2019-01-24T04:10:01.440Z,15.43
2019-01-24T04:12:31.377Z,17.83
2019-01-24T04:15:01.334Z,17.00
2019-01-24T04:17:31.251Z,16.67
2019-01-24T04:20:01.350Z,15.57
2019-01-24T04:22:31.283Z,16.73
2019-01-24T04:25:01.189Z,16.40
2019-01-24T04:27:31.492Z,16.37
2019-01-24T04:30:01.443Z,18.33
2019-01-24T04:32:31.399Z,16.80
2019-01-24T04:35:01.361Z,16.93
2019-01-24T04:37:31.301Z,16.63
2019-01-24T04:40:01.239Z,15.73
2019-01-24T04:42:31.166Z,17.70
2019-01-24T04:45:01.041Z,18.37
2019-01-24T04:47:31.043Z,17.47
2019-01-24T04:50:01.007Z,17.27
2019-01-24T04:52:30.935Z,17.30
2019-01-24T04:55:00.908Z,17.03
2019-01-24T04:57:30.849Z,16.73
2019-01-24T05:00:00.733Z,18.00
2019-01-24T05:02:30.622Z,17.13
2019-01-24T05:05:00.542Z,16.77
2019-01-24T05:07:30.763Z,17.23
2019-01-24T05:10:02.313Z,17.93
2019-01-24T05:12:32.493Z,18.17
2019-01-24T05:15:02.381Z,16.77
2019-01-24T05:17:32.341Z,16.63
2019-01-24T05:20:02.204Z,17.00
2019-01-24T05:22:32.051Z,19.87
2019-01-24T05:25:01.933Z,19.67
2019-01-24T05:27:31.898Z,20.03
2019-01-24T05:30:01.881Z,18.97
2019-01-24T05:32:31.808Z,19.37
2019-01-24T05:35:01.815Z,19.00
2019-01-24T05:37:31.746Z,18.43
2019-01-24T05:40:01.735Z,19.63
2019-01-24T05:42:31.739Z,17.20
2019-01-24T05:45:01.698Z,17.33
2019-01-24T05:47:31.677Z,17.13
2019-01-24T05:50:01.820Z,21.27
2019-01-24T05:52:31.965Z,18.80
2019-01-24T05:55:02.035Z,19.57
2019-01-24T05:57:32.102Z,18.33
2019-01-24T06:00:02.149Z,18.60
2019-01-24T06:02:31.998Z,17.80
2019-01-24T06:05:02.583Z,19.40
2019-01-24T06:07:32.533Z,19.97
2019-01-24T06:10:02.400Z,19.03
2019-01-24T06:12:32.271Z,18.47
2019-01-24T06:15:02.222Z,19.20
2019-01-24T06:17:32.153Z,19.43
2019-01-24T06:20:01.993Z,20.33
2019-01-24T06:22:31.969Z,20.20
2019-01-24T06:25:01.827Z,21.13
2019-01-24T06:27:31.766Z,19.13
2019-01-24T06:30:01.696Z,19.40
2019-01-24T06:32:31.674Z,18.63
2019-01-24T06:35:01.607Z,21.00
2019-01-24T06:37:31.593Z,20.00
2019-01-24T06:40:01.528Z,20.13
2019-01-24T06:42:31.521Z,20.10
2019-01-24T06:45:01.403Z,18.97
2019-01-24T06:47:31.388Z,19.77
2019-01-24T06:50:01.341Z,19.30
2019-01-24T06:52:31.337Z,20.73
2019-01-24T06:55:01.285Z,20.87
2019-01-24T06:57:31.266Z,19.30
2019-01-24T07:00:01.429Z,21.17
2019-01-24T07:02:31.407Z,19.83
2019-01-24T07:05:01.320Z,22.60
2019-01-24T07:07:31.265Z,23.40
2019-01-24T07:10:01.135Z,22.57
2019-01-24T07:12:31.073Z,20.53
2019-01-24T07:15:01.013Z,20.63
2019-01-24T07:17:30.970Z,21.23
2019-01-24T07:20:00.945Z,21.93
2019-01-24T07:22:30.902Z,22.60
2019-01-24T07:25:01.023Z,22.57
2019-01-24T07:27:30.992Z,22.17
2019-01-24T07:30:04.517Z,22.80
2019-01-24T07:32:34.421Z,22.80
2019-01-24T07:35:05.037Z,20.67
2019-01-24T07:37:34.953Z,21.60
2019-01-24T07:40:06.151Z,21.37
2019-01-24T07:42:36.113Z,21.73
2019-01-24T07:45:10.526Z,21.97
2019-01-24T07:47:40.517Z,21.33
2019-01-24T07:50:11.954Z,24.33
2019-01-24T07:52:41.894Z,23.60
2019-01-24T07:55:12.368Z,22.67
2019-01-24T07:57:42.653Z,23.50
2019-01-24T08:00:16.334Z,22.77
2019-01-24T08:02:46.278Z,22.30
2019-01-24T08:05:16.366Z,23.17
2019-01-24T08:07:46.325Z,25.03
2019-01-24T08:10:17.797Z,21.70
2019-01-24T08:12:48.177Z,22.87
2019-01-24T08:15:19.397Z,23.37
2019-01-24T08:17:49.772Z,25.23
2019-01-24T08:20:21.807Z,23.07
2019-01-24T08:22:51.750Z,24.67
2019-01-24T08:25:20.984Z,26.07
2019-01-24T08:27:50.258Z,26.63
2019-01-24T08:30:28.532Z,24.13
2019-01-24T08:32:58.481Z,23.33
2019-01-24T08:35:28.688Z,25.13
2019-01-24T08:37:57.954Z,25.80
2019-01-24T08:40:27.097Z,26.07
2019-01-24T08:42:56.876Z,23.77
2019-01-24T08:45:26.200Z,22.93
2019-01-24T08:47:55.405Z,25.03
2019-01-24T08:50:24.879Z,24.40
2019-01-24T08:52:54.725Z,24.57
2019-01-24T08:55:39.283Z,24.40
2019-01-24T08:58:10.168Z,24.07
2019-01-24T09:00:40.306Z,25.57
2019-01-24T09:03:10.278Z,26.30
2019-01-24T09:05:40.192Z,24.03
2019-01-24T09:08:09.662Z,23.33
2019-01-24T09:10:41.625Z,24.20
2019-01-24T09:13:11.603Z,23.77
2019-01-24T09:15:40.920Z,24.47
2019-01-24T09:18:10.121Z,23.00
2019-01-24T09:20:39.953Z,22.07
2019-01-24T09:23:09.855Z,24.47
2019-01-24T09:25:39.805Z,22.93
2019-01-24T09:28:14.817Z,26.20
2019-01-24T09:30:40.647Z,24.80
2019-01-24T09:33:09.800Z,24.33
2019-01-24T09:35:40.799Z,27.67
2019-01-24T09:38:10.732Z,25.87
2019-01-24T09:40:40.113Z,25.13
2019-01-24T09:43:09.969Z,25.57
2019-01-24T09:45:39.896Z,27.10
2019-01-24T09:48:10.026Z,25.43
2019-01-24T09:50:39.965Z,25.53
2019-01-24T09:53:09.260Z,19.63
2019-01-24T09:55:38.467Z,19.93
2019-01-24T09:58:07.693Z,21.07
2019-01-24T10:00:38.380Z,20.30
2019-01-24T10:03:07.810Z,19.97
2019-01-24T10:05:37.657Z,22.07
2019-01-24T10:08:07.397Z,20.03
2019-01-24T10:10:36.753Z,18.27
2019-01-24T10:13:06.292Z,19.67
2019-01-24T10:15:36.094Z,19.57
2019-01-24T10:18:06.246Z,17.77
2019-01-24T10:20:35.501Z,18.30
2019-01-24T10:23:05.773Z,18.20
2019-01-24T10:25:36.717Z,18.57
2019-01-24T10:28:06.877Z,17.43
2019-01-24T10:30:42.742Z,18.77
2019-01-24T10:33:07.834Z,21.73
2019-01-24T10:35:37.019Z,18.87
2019-01-24T10:38:07.086Z,20.00
2019-01-24T10:40:36.957Z,20.10
2019-01-24T10:43:06.993Z,19.57
2019-01-24T10:45:36.969Z,19.73
2019-01-24T10:48:07.353Z,18.97
2019-01-24T10:50:37.297Z,20.57
2019-01-24T10:53:06.622Z,18.03
2019-01-24T10:55:36.425Z,17.80
2019-01-24T10:58:06.448Z,18.27
2019-01-24T11:00:39.178Z,17.13
2019-01-24T11:03:15.482Z,17.13
2019-01-24T11:05:45.454Z,17.30
2019-01-24T11:08:15.941Z,18.43
2019-01-24T11:10:45.936Z,18.83
2019-01-24T11:13:15.273Z,19.50
2019-01-24T11:15:45.142Z,19.47
2019-01-24T11:18:14.487Z,20.60
2019-01-24T11:20:44.337Z,20.30
2019-01-24T11:23:14.430Z,21.67
2019-01-24T11:25:43.770Z,19.60
2019-01-24T11:28:13.613Z,20.53
2019-01-24T11:30:42.993Z,21.00
2019-01-24T11:33:12.160Z,19.43
2019-01-24T11:35:42.051Z,19.20
2019-01-24T11:38:12.195Z,20.07
2019-01-24T11:40:42.234Z,18.37
2019-01-24T11:43:12.125Z,16.50
2019-01-24T11:45:43.672Z,17.93
2019-01-24T11:48:13.624Z,17.17
2019-01-24T11:50:42.928Z,17.77
2019-01-24T11:53:12.758Z,18.20
2019-01-24T11:55:42.778Z,17.23
2019-01-24T11:58:12.741Z,16.00
2019-01-24T12:00:48.518Z,18.27
2019-01-24T12:03:18.479Z,18.10
2019-01-24T12:05:48.395Z,17.47
2019-01-24T12:08:18.294Z,15.37
2019-01-24T12:10:48.260Z,16.13
2019-01-24T12:13:18.272Z,16.10
2019-01-24T12:15:47.601Z,16.27
2019-01-24T12:18:16.773Z,16.73
2019-01-24T12:20:45.940Z,15.83
2019-01-24T12:23:16.041Z,16.97
2019-01-24T12:25:45.946Z,17.57
2019-01-24T12:28:15.332Z,16.20
2019-01-24T12:30:45.184Z,15.57
2019-01-24T12:33:14.484Z,15.60
2019-01-24T12:35:43.657Z,15.17
2019-01-24T12:38:13.013Z,15.93
2019-01-24T12:40:42.855Z,15.13
2019-01-24T12:43:12.156Z,15.27
2019-01-24T12:45:41.511Z,15.57
2019-01-24T12:48:10.829Z,15.37
2019-01-24T12:50:40.788Z,16.07
2019-01-24T12:53:10.074Z,15.13
2019-01-24T12:55:39.244Z,14.33
2019-01-24T12:58:09.228Z,13.60
2019-01-24T13:00:40.113Z,14.90
2019-01-24T13:03:10.245Z,15.20
2019-01-24T13:05:40.310Z,15.67
2019-01-24T13:08:10.281Z,14.70
2019-01-24T13:10:40.149Z,15.63
2019-01-24T13:13:10.144Z,15.00
2019-01-24T13:15:41.238Z,15.83
2019-01-24T13:18:10.601Z,16.80
2019-01-24T13:20:40.365Z,17.43
2019-01-24T13:23:10.266Z,17.20
2019-01-24T13:25:40.182Z,16.20
2019-01-24T13:28:10.141Z,19.50
2019-01-24T13:30:40.193Z,17.43
2019-01-24T13:33:09.532Z,17.37
2019-01-24T13:35:38.716Z,16.43
2019-01-24T13:38:08.310Z,19.20
2019-01-24T13:40:38.200Z,16.13
2019-01-24T13:43:08.164Z,17.93
2019-01-24T13:45:40.419Z,18.03
2019-01-24T13:48:10.536Z,18.10
2019-01-24T13:50:40.399Z,16.30
2019-01-24T13:53:09.812Z,18.53
2019-01-24T13:55:39.532Z,17.97
2019-01-24T13:58:08.987Z,16.97
2019-01-24T14:00:40.509Z,18.37
2019-01-24T14:03:20.197Z,18.30
2019-01-24T14:05:50.134Z,17.40
2019-01-24T14:08:19.424Z,17.03
2019-01-24T14:10:48.727Z,17.93
2019-01-24T14:13:18.574Z,18.27
2019-01-24T14:15:47.925Z,16.63
2019-01-24T14:18:17.930Z,17.63
2019-01-24T14:20:47.986Z,16.07
2019-01-24T14:23:17.453Z,17.00
2019-01-24T14:25:47.239Z,17.10
2019-01-24T14:28:16.732Z,16.33
2019-01-24T14:30:46.601Z,17.00
2019-01-24T14:33:16.508Z,16.23
2019-01-24T14:35:47.974Z,18.50
2019-01-24T14:38:17.294Z,16.83
2019-01-24T14:40:46.540Z,17.50
2019-01-24T14:43:16.349Z,17.53
2019-01-24T14:45:46.360Z,17.87
2019-01-24T14:48:15.946Z,17.00
2019-01-24T14:50:45.232Z,17.13
2019-01-24T14:53:15.056Z,16.07
2019-01-24T14:55:44.995Z,17.87
2019-01-24T14:58:14.314Z,18.93
2019-01-24T15:00:53.737Z,18.87
2019-01-24T15:03:22.989Z,18.80
2019-01-24T15:05:52.864Z,18.40
2019-01-24T15:08:22.189Z,17.83
2019-01-24T15:10:52.040Z,17.80
2019-01-24T15:13:22.239Z,17.70
2019-01-24T15:15:52.202Z,16.70
2019-01-24T15:18:22.137Z,17.77
2019-01-24T15:20:52.087Z,16.37
2019-01-24T15:23:22.026Z,17.50
2019-01-24T15:25:51.966Z,16.17
2019-01-24T15:28:21.457Z,16.90
2019-01-24T15:30:51.259Z,16.57
2019-01-24T15:33:20.569Z,15.47
2019-01-24T15:35:51.453Z,16.70
2019-01-24T15:38:21.590Z,16.10
2019-01-24T15:40:51.598Z,16.00
2019-01-24T15:43:21.562Z,16.70
2019-01-24T15:45:51.518Z,17.03
2019-01-24T15:48:21.490Z,15.70
2019-01-24T15:50:51.454Z,16.97
2019-01-24T15:53:22.301Z,15.87
2019-01-24T15:55:52.265Z,14.73
2019-01-24T15:58:21.587Z,15.90
2019-01-24T16:00:50.825Z,15.43
2019-01-24T16:03:20.006Z,16.27
2019-01-24T16:05:49.260Z,17.07
2019-01-24T16:08:18.544Z,16.13
2019-01-24T16:10:47.805Z,16.80
2019-01-24T16:13:17.694Z,17.53
2019-01-24T16:15:47.806Z,18.00
2019-01-24T16:18:17.128Z,16.67
2019-01-24T16:20:47.006Z,18.37
2019-01-24T16:23:16.975Z,17.70
2019-01-24T16:25:46.298Z,17.30
2019-01-24T16:28:15.500Z,20.93
2019-01-24T16:30:44.899Z,21.37
2019-01-24T16:33:14.953Z,21.20
2019-01-24T16:35:44.949Z,26.13
2019-01-24T16:38:14.373Z,23.93
2019-01-24T16:40:44.201Z,24.00
2019-01-24T16:43:14.138Z,24.27
2019-01-24T16:45:44.229Z,25.37
2019-01-24T16:48:13.546Z,23.97
2019-01-24T16:50:43.427Z,20.97
2019-01-24T16:53:12.766Z,20.97
2019-01-24T16:55:42.569Z,20.30
2019-01-24T16:58:12.715Z,23.03
2019-01-24T17:00:45.965Z,23.13
2019-01-24T17:03:16.985Z,26.37
2019-01-24T17:05:46.510Z,24.20
2019-01-24T17:08:16.949Z,21.63
2019-01-24T17:10:46.873Z,25.30
2019-01-24T17:13:17.061Z,26.07
2019-01-24T17:15:46.397Z,27.30
2019-01-24T17:18:15.675Z,25.30
2019-01-24T17:20:45.524Z,26.97
2019-01-24T17:23:14.794Z,24.93
2019-01-24T17:25:44.634Z,27.77
2019-01-24T17:28:16.025Z,28.63
2019-01-24T17:30:45.324Z,29.83
2019-01-24T17:33:15.138Z,29.57
2019-01-24T17:35:45.007Z,28.20
2019-01-24T17:38:15.529Z,29.13
2019-01-24T17:40:45.510Z,27.90
2019-01-24T17:43:14.921Z,27.70
2019-01-24T17:45:44.087Z,28.70
2019-01-24T17:48:13.993Z,29.50
2019-01-24T17:50:43.298Z,26.17
2019-01-24T17:53:13.144Z,25.93
2019-01-24T17:55:45.438Z,26.13
2019-01-24T17:58:15.389Z,28.27
2019-01-24T18:00:50.793Z,27.73
2019-01-24T18:03:20.217Z,28.03
2019-01-24T18:05:50.063Z,26.07
2019-01-24T18:08:20.166Z,24.93
2019-01-24T18:10:50.438Z,25.10
2019-01-24T18:13:20.369Z,23.17
2019-01-24T18:15:50.548Z,23.00
2019-01-24T18:18:20.510Z,19.77
2019-01-24T18:20:51.914Z,22.00
2019-01-24T18:23:21.941Z,20.50
2019-01-24T18:25:51.879Z,23.87
2019-01-24T18:28:21.223Z,21.27
2019-01-24T18:30:50.562Z,21.03
2019-01-24T18:33:19.810Z,20.10
2019-01-24T18:35:48.976Z,20.07
2019-01-24T18:38:18.846Z,22.67
2019-01-24T18:40:48.105Z,23.17
2019-01-24T18:43:19.566Z,22.13
2019-01-24T18:45:49.177Z,21.23
2019-01-24T18:48:19.495Z,23.27
2019-01-24T18:50:49.653Z,21.93
2019-01-24T18:53:18.921Z,23.13
2019-01-24T18:55:48.683Z,24.90
2019-01-24T18:58:18.674Z,23.23
2019-01-24T19:00:49.094Z,22.90
2019-01-24T19:03:18.424Z,24.67
2019-01-24T19:05:48.179Z,25.33
2019-01-24T19:08:17.527Z,24.83
2019-01-24T19:10:47.370Z,25.40
2019-01-24T19:13:17.934Z,25.83
2019-01-24T19:15:49.406Z,23.73
2019-01-24T19:18:19.477Z,23.47
2019-01-24T19:20:48.784Z,22.50
2019-01-24T19:23:18.617Z,24.13
2019-01-24T19:25:48.517Z,22.73
2019-01-24T19:28:18.377Z,25.27
2019-01-24T19:30:47.709Z,22.97
2019-01-24T19:33:16.878Z,24.10
2019-01-24T19:35:46.273Z,24.40
2019-01-24T19:38:15.452Z,25.20
2019-01-24T19:40:44.697Z,22.77
2019-01-24T19:43:14.553Z,25.77
2019-01-24T19:45:44.141Z,25.43
2019-01-24T19:48:14.396Z,26.27
2019-01-24T19:50:44.308Z,25.47
2019-01-24T19:53:14.250Z,25.10
2019-01-24T19:55:44.252Z,25.63
2019-01-24T19:58:14.216Z,24.13
2019-01-24T20:00:43.592Z,24.47
2019-01-24T20:03:13.493Z,25.83
2019-01-24T20:05:43.438Z,25.90
2019-01-24T20:08:12.980Z,26.40
2019-01-24T20:10:43.093Z,25.50
2019-01-24T20:13:13.099Z,23.73
2019-01-24T20:15:42.474Z,24.03
2019-01-24T20:18:12.637Z,23.40
2019-01-24T20:20:42.893Z,25.60
2019-01-24T20:23:12.210Z,25.13
2019-01-24T20:25:42.134Z,26.23
2019-01-24T20:28:12.038Z,25.70
2019-01-24T20:30:41.468Z,25.37
2019-01-24T20:33:10.878Z,26.40
2019-01-24T20:35:41.948Z,26.03
2019-01-24T20:38:12.188Z,25.53
2019-01-24T20:40:42.890Z,26.43
2019-01-24T20:43:13.774Z,23.10
2019-01-24T20:45:43.678Z,24.83
2019-01-24T20:48:13.024Z,23.70
2019-01-24T20:50:42.880Z,25.87
2019-01-24T20:53:12.820Z,22.23
2019-01-24T20:55:42.790Z,23.40
2019-01-24T20:58:21.204Z,20.47
2019-01-24T21:00:50.574Z,19.60
2019-01-24T21:03:20.450Z,19.03
2019-01-24T21:05:49.798Z,16.50
2019-01-24T21:08:19.033Z,17.93
2019-01-24T21:10:49.087Z,16.53
2019-01-24T21:13:18.645Z,18.17
2019-01-24T21:15:48.441Z,16.73
2019-01-24T21:18:18.393Z,17.83
2019-01-24T21:20:47.651Z,18.33
2019-01-24T21:23:17.478Z,16.63
2019-01-24T21:25:47.839Z,16.60
2019-01-24T21:28:17.165Z,16.60
2019-01-24T21:30:47.161Z,17.13
2019-01-24T21:33:16.505Z,18.37
2019-01-24T21:35:45.774Z,17.13
2019-01-24T21:38:15.656Z,18.40
2019-01-24T21:40:47.109Z,17.83
2019-01-24T21:43:16.989Z,16.87
2019-01-24T21:45:46.966Z,17.77
2019-01-24T21:48:16.298Z,18.00
2019-01-24T21:50:45.597Z,18.87
2019-01-24T21:53:15.429Z,18.97
2019-01-24T21:55:45.409Z,17.57
2019-01-24T21:58:14.648Z,17.80
2019-01-24T22:00:44.016Z,18.50
2019-01-24T22:03:13.886Z,17.87
2019-01-24T22:05:43.264Z,19.40
2019-01-24T22:08:13.198Z,18.37
2019-01-24T22:10:43.137Z,17.93
2019-01-24T22:13:13.000Z,20.97
2019-01-24T22:15:42.957Z,20.07
2019-01-24T22:18:12.799Z,20.13
2019-01-24T22:20:42.785Z,20.00
2019-01-24T22:23:12.031Z,18.83
2019-01-24T22:25:41.824Z,21.63
2019-01-24T22:28:11.770Z,16.93
2019-01-24T22:30:46.673Z,19.33
2019-01-24T22:33:16.559Z,21.37
2019-01-24T22:35:46.501Z,21.27
2019-01-24T22:38:15.735Z,22.33
2019-01-24T22:40:44.947Z,22.33
2019-01-24T22:43:14.193Z,20.37
2019-01-24T22:45:44.317Z,21.27
2019-01-24T22:48:13.601Z,21.80
2019-01-24T22:50:43.429Z,21.03
2019-01-24T22:53:13.308Z,20.67
2019-01-24T22:55:43.205Z,21.23
2019-01-24T22:58:13.140Z,19.93
2019-01-24T23:01:06.059Z,20.80
2019-01-24T23:03:42.598Z,21.47
2019-01-24T23:06:12.569Z,20.30
2019-01-24T23:08:42.475Z,21.93
2019-01-24T23:11:12.605Z,20.20
2019-01-24T23:13:41.890Z,19.23
2019-01-24T23:16:11.988Z,20.60
2019-01-24T23:18:41.861Z,21.03
2019-01-24T23:21:11.776Z,20.33
2019-01-24T23:23:41.511Z,19.90
2019-01-24T23:26:11.389Z,19.80
2019-01-24T23:28:41.371Z,20.53
2019-01-24T23:31:11.260Z,19.60
2019-01-24T23:33:41.210Z,19.30
2019-01-24T23:36:11.227Z,19.40
2019-01-24T23:38:40.560Z,18.40
2019-01-24T23:41:10.340Z,19.37
2019-01-24T23:43:40.777Z,19.03
2019-01-24T23:46:10.206Z,20.40
2019-01-24T23:48:40.005Z,17.70
2019-01-24T23:51:10.259Z,18.80
2019-01-24T23:53:40.275Z,20.20
2019-01-24T23:56:10.392Z,19.70
2019-01-24T23:58:40.642Z,19.37
